sensor_id;sensor_type;location;lat;lon;timestamp;pressure;altitude;pressure_sealevel;temperature;humidity
42335;BME280;27986;42.700;24.178;2023-02-04T00:00:48;93638.59;;;2.99;77.65
42335;BME280;27986;42.700;24.178;2023-02-04T00:03:14;93610.84;;;2.54;78.61
42335;BME280;27986;42.700;24.178;2023-02-04T00:05:41;93561.94;;;2.18;79.41
42335;BME280;27986;42.700;24.178;2023-02-04T00:08:07;93551.00;;;2.00;80.21
42335;BME280;27986;42.700;24.178;2023-02-04T00:10:32;93530.78;;;2.00;80.35
42335;BME280;27986;42.700;24.178;2023-02-04T00:12:59;93630.50;;;2.66;80.38
42335;BME280;27986;42.700;24.178;2023-02-04T00:15:25;93596.56;;;2.47;79.64
42335;BME280;27986;42.700;24.178;2023-02-04T00:17:50;93623.69;;;2.67;79.13
42335;BME280;27986;42.700;24.178;2023-02-04T00:20:16;93548.03;;;2.18;78.46
42335;BME280;27986;42.700;24.178;2023-02-04T00:22:43;93596.22;;;2.74;78.78
42335;BME280;27986;42.700;24.178;2023-02-04T00:25:09;93572.63;;;2.70;78.46
42335;BME280;27986;42.700;24.178;2023-02-04T00:27:34;93489.94;;;2.06;77.07
42335;BME280;27986;42.700;24.178;2023-02-04T00:30:00;93527.22;;;1.55;80.11
42335;BME280;27986;42.700;24.178;2023-02-04T00:32:25;93587.81;;;2.10;81.73
42335;BME280;27986;42.700;24.178;2023-02-04T00:34:51;93470.53;;;1.61;81.26
42335;BME280;27986;42.700;24.178;2023-02-04T00:37:18;93497.25;;;1.74;81.10
42335;BME280;27986;42.700;24.178;2023-02-04T00:39:43;93563.38;;;2.14;81.76
42335;BME280;27986;42.700;24.178;2023-02-04T00:42:09;93490.06;;;1.96;79.33
42335;BME280;27986;42.700;24.178;2023-02-04T00:44:34;93546.03;;;2.19;81.03
42335;BME280;27986;42.700;24.178;2023-02-04T00:47:01;93521.59;;;2.43;80.33
42335;BME280;27986;42.700;24.178;2023-02-04T00:49:26;93530.91;;;2.55;79.74
42335;BME280;27986;42.700;24.178;2023-02-04T00:51:52;93538.16;;;2.17;79.80
42335;BME280;27986;42.700;24.178;2023-02-04T00:54:17;93564.03;;;2.38;81.09
42335;BME280;27986;42.700;24.178;2023-02-04T00:56:43;93506.13;;;2.07;81.46
42335;BME280;27986;42.700;24.178;2023-02-04T00:59:09;93430.16;;;1.66;82.85
42335;BME280;27986;42.700;24.178;2023-02-04T01:01:35;93518.16;;;2.48;81.63
42335;BME280;27986;42.700;24.178;2023-02-04T01:04:00;93426.22;;;1.87;80.94
42335;BME280;27986;42.700;24.178;2023-02-04T01:06:26;93533.78;;;2.61;81.09
42335;BME280;27986;42.700;24.178;2023-02-04T01:08:52;93515.00;;;2.76;80.43
42335;BME280;27986;42.700;24.178;2023-02-04T01:11:18;93476.84;;;2.26;80.44
42335;BME280;27986;42.700;24.178;2023-02-04T01:13:44;93384.69;;;1.84;80.63
42335;BME280;27986;42.700;24.178;2023-02-04T01:16:09;93417.59;;;1.85;80.95
42335;BME280;27986;42.700;24.178;2023-02-04T01:18:35;93514.28;;;2.61;80.37
42335;BME280;27986;42.700;24.178;2023-02-04T01:21:01;93500.91;;;2.44;81.57
42335;BME280;27986;42.700;24.178;2023-02-04T01:23:26;93470.69;;;2.37;81.22
42335;BME280;27986;42.700;24.178;2023-02-04T01:25:52;93415.53;;;2.01;80.29
42335;BME280;27986;42.700;24.178;2023-02-04T01:28:17;93419.19;;;1.92;80.08
42335;BME280;27986;42.700;24.178;2023-02-04T01:30:43;93488.13;;;2.52;80.90
42335;BME280;27986;42.700;24.178;2023-02-04T01:33:08;93426.75;;;2.06;81.10
42335;BME280;27986;42.700;24.178;2023-02-04T01:35:34;93464.66;;;2.39;81.25
42335;BME280;27986;42.700;24.178;2023-02-04T01:37:59;93467.19;;;2.77;80.42
42335;BME280;27986;42.700;24.178;2023-02-04T01:40:25;93396.69;;;2.45;78.48
42335;BME280;27986;42.700;24.178;2023-02-04T01:42:51;93441.16;;;2.60;78.73
42335;BME280;27986;42.700;24.178;2023-02-04T01:45:17;93350.28;;;1.96;79.26
42335;BME280;27986;42.700;24.178;2023-02-04T01:47:43;93431.34;;;2.65;78.92
42335;BME280;27986;42.700;24.178;2023-02-04T01:50:12;93461.22;;;3.05;77.29
42335;BME280;27986;42.700;24.178;2023-02-04T01:52:39;93397.53;;;2.72;77.58
42335;BME280;27986;42.700;24.178;2023-02-04T01:55:14;93388.97;;;2.55;79.00
42335;BME280;27986;42.700;24.178;2023-02-04T01:57:40;93396.34;;;2.58;77.10
42335;BME280;27986;42.700;24.178;2023-02-04T02:00:18;93424.38;;;2.95;77.60
42335;BME280;27986;42.700;24.178;2023-02-04T02:02:49;93323.16;;;2.52;75.33
42335;BME280;27986;42.700;24.178;2023-02-04T02:05:21;93373.78;;;2.76;75.45
42335;BME280;27986;42.700;24.178;2023-02-04T02:07:48;93316.44;;;2.38;76.72
42335;BME280;27986;42.700;24.178;2023-02-04T02:10:16;93434.13;;;3.05;77.66
42335;BME280;27986;42.700;24.178;2023-02-04T02:12:43;93309.75;;;1.89;78.44
42335;BME280;27986;42.700;24.178;2023-02-04T02:15:10;93359.53;;;2.48;78.43
42335;BME280;27986;42.700;24.178;2023-02-04T02:17:36;93383.38;;;2.96;77.69
42335;BME280;27986;42.700;24.178;2023-02-04T02:20:05;93363.72;;;2.59;77.81
42335;BME280;27986;42.700;24.178;2023-02-04T02:23:10;93417.56;;;2.96;79.46
42335;BME280;27986;42.700;24.178;2023-02-04T02:25:38;93359.41;;;2.58;79.08
42335;BME280;27986;42.700;24.178;2023-02-04T02:28:10;93391.78;;;3.01;78.25
42335;BME280;27986;42.700;24.178;2023-02-04T02:30:36;93341.28;;;2.88;76.93
42335;BME280;27986;42.700;24.178;2023-02-04T02:33:03;93344.16;;;2.99;76.29
42335;BME280;27986;42.700;24.178;2023-02-04T02:35:29;93425.78;;;3.57;75.46
42335;BME280;27986;42.700;24.178;2023-02-04T02:37:54;93292.94;;;2.91;75.15
42335;BME280;27986;42.700;24.178;2023-02-04T02:40:20;93338.41;;;3.34;74.88
42335;BME280;27986;42.700;24.178;2023-02-04T02:42:48;93313.09;;;3.06;74.77
42335;BME280;27986;42.700;24.178;2023-02-04T02:45:22;93304.47;;;2.32;76.26
42335;BME280;27986;42.700;24.178;2023-02-04T02:47:48;93316.28;;;2.47;78.82
42335;BME280;27986;42.700;24.178;2023-02-04T02:50:20;93372.13;;;3.10;78.91
42335;BME280;27986;42.700;24.178;2023-02-04T02:52:47;93293.53;;;2.49;78.60
42335;BME280;27986;42.700;24.178;2023-02-04T02:55:15;93332.41;;;2.43;79.67
42335;BME280;27986;42.700;24.178;2023-02-04T02:57:41;93300.09;;;2.25;80.88
42335;BME280;27986;42.700;24.178;2023-02-04T03:00:20;93321.00;;;2.62;79.90
42335;BME280;27986;42.700;24.178;2023-02-04T03:02:57;93305.69;;;2.51;80.37
42335;BME280;27986;42.700;24.178;2023-02-04T03:05:25;93290.75;;;2.75;78.98
42335;BME280;27986;42.700;24.178;2023-02-04T03:07:51;93337.59;;;3.02;78.53
42335;BME280;27986;42.700;24.178;2023-02-04T03:10:17;93294.31;;;2.29;80.03
42335;BME280;27986;42.700;24.178;2023-02-04T03:12:43;93355.63;;;2.81;81.64
42335;BME280;27986;42.700;24.178;2023-02-04T03:15:10;93292.28;;;2.76;80.09
42335;BME280;27986;42.700;24.178;2023-02-04T03:17:36;93339.47;;;2.85;79.71
42335;BME280;27986;42.700;24.178;2023-02-04T03:20:02;93269.78;;;2.28;81.02
42335;BME280;27986;42.700;24.178;2023-02-04T03:22:29;93281.63;;;2.48;81.09
42335;BME280;27986;42.700;24.178;2023-02-04T03:24:55;93279.84;;;2.45;81.53
42335;BME280;27986;42.700;24.178;2023-02-04T03:27:23;93317.34;;;2.76;82.78
42335;BME280;27986;42.700;24.178;2023-02-04T03:29:49;93250.88;;;2.11;82.69
42335;BME280;27986;42.700;24.178;2023-02-04T03:32:14;93301.94;;;2.34;84.36
42335;BME280;27986;42.700;24.178;2023-02-04T03:34:40;93263.50;;;2.33;83.26
42335;BME280;27986;42.700;24.178;2023-02-04T03:37:06;93210.53;;;2.21;82.66
42335;BME280;27986;42.700;24.178;2023-02-04T03:39:32;93252.28;;;2.73;81.74
42335;BME280;27986;42.700;24.178;2023-02-04T03:41:58;93278.19;;;2.59;80.32
42335;BME280;27986;42.700;24.178;2023-02-04T03:44:23;93267.84;;;2.13;82.79
42335;BME280;27986;42.700;24.178;2023-02-04T03:46:52;93263.53;;;2.59;82.50
42335;BME280;27986;42.700;24.178;2023-02-04T03:49:20;93297.31;;;2.72;81.25
42335;BME280;27986;42.700;24.178;2023-02-04T03:51:46;93218.78;;;1.90;82.32
42335;BME280;27986;42.700;24.178;2023-02-04T03:54:12;93242.03;;;2.13;82.74
42335;BME280;27986;42.700;24.178;2023-02-04T03:56:37;93285.13;;;2.43;83.43
42335;BME280;27986;42.700;24.178;2023-02-04T03:59:03;93266.59;;;2.61;82.39
42335;BME280;27986;42.700;24.178;2023-02-04T04:01:28;93225.66;;;2.41;80.70
42335;BME280;27986;42.700;24.178;2023-02-04T04:03:54;93227.34;;;2.33;81.30
42335;BME280;27986;42.700;24.178;2023-02-04T04:06:20;93251.09;;;2.80;80.16
42335;BME280;27986;42.700;24.178;2023-02-04T04:08:46;93188.22;;;2.42;79.95
42335;BME280;27986;42.700;24.178;2023-02-04T04:11:12;93217.53;;;2.37;80.46
42335;BME280;27986;42.700;24.178;2023-02-04T04:13:37;93196.41;;;2.25;81.05
42335;BME280;27986;42.700;24.178;2023-02-04T04:16:03;93178.56;;;1.85;82.41
42335;BME280;27986;42.700;24.178;2023-02-04T04:18:29;93266.47;;;2.49;82.55
42335;BME280;27986;42.700;24.178;2023-02-04T04:20:57;93182.41;;;2.14;81.72
42335;BME280;27986;42.700;24.178;2023-02-04T04:23:22;93166.56;;;2.00;81.09
42335;BME280;27986;42.700;24.178;2023-02-04T04:25:49;93141.44;;;1.68;81.53
42335;BME280;27986;42.700;24.178;2023-02-04T04:28:15;93131.59;;;1.67;81.32
42335;BME280;27986;42.700;24.178;2023-02-04T04:30:41;93193.22;;;1.86;81.93
42335;BME280;27986;42.700;24.178;2023-02-04T04:33:06;93209.38;;;2.08;83.68
42335;BME280;27986;42.700;24.178;2023-02-04T04:35:32;93239.66;;;2.26;82.34
42335;BME280;27986;42.700;24.178;2023-02-04T04:38:02;93196.63;;;2.21;83.32
42335;BME280;27986;42.700;24.178;2023-02-04T04:40:28;93142.09;;;2.30;81.04
42335;BME280;27986;42.700;24.178;2023-02-04T04:42:53;93228.09;;;3.17;79.53
42335;BME280;27986;42.700;24.178;2023-02-04T04:45:19;93270.28;;;3.04;79.24
42335;BME280;27986;42.700;24.178;2023-02-04T04:47:45;93167.78;;;2.19;81.34
42335;BME280;27986;42.700;24.178;2023-02-04T04:50:10;93176.91;;;2.19;82.80
42335;BME280;27986;42.700;24.178;2023-02-04T04:52:36;93187.84;;;2.54;83.01
42335;BME280;27986;42.700;24.178;2023-02-04T04:55:03;93202.53;;;2.55;82.14
42335;BME280;27986;42.700;24.178;2023-02-04T04:57:28;93212.94;;;2.86;81.88
42335;BME280;27986;42.700;24.178;2023-02-04T04:59:54;93131.66;;;2.50;81.00
42335;BME280;27986;42.700;24.178;2023-02-04T05:02:19;93205.06;;;3.16;80.55
42335;BME280;27986;42.700;24.178;2023-02-04T05:04:45;93248.09;;;3.52;80.30
42335;BME280;27986;42.700;24.178;2023-02-04T05:07:11;93138.75;;;2.83;80.06
42335;BME280;27986;42.700;24.178;2023-02-04T05:09:36;93151.84;;;2.77;80.13
42335;BME280;27986;42.700;24.178;2023-02-04T05:12:02;93203.78;;;3.12;78.04
42335;BME280;27986;42.700;24.178;2023-02-04T05:14:28;93194.78;;;2.96;79.53
42335;BME280;27986;42.700;24.178;2023-02-04T05:16:53;93132.91;;;2.81;78.97
42335;BME280;27986;42.700;24.178;2023-02-04T05:19:19;93191.22;;;3.33;78.65
42335;BME280;27986;42.700;24.178;2023-02-04T05:21:44;93168.44;;;3.34;78.57
42335;BME280;27986;42.700;24.178;2023-02-04T05:24:10;93220.81;;;3.62;78.03
42335;BME280;27986;42.700;24.178;2023-02-04T05:26:35;93261.84;;;4.04;77.85
42335;BME280;27986;42.700;24.178;2023-02-04T05:29:01;93194.09;;;3.44;78.61
42335;BME280;27986;42.700;24.178;2023-02-04T05:31:27;93233.66;;;3.48;79.34
42335;BME280;27986;42.700;24.178;2023-02-04T05:33:53;93214.72;;;3.21;80.45
42335;BME280;27986;42.700;24.178;2023-02-04T05:36:19;93241.56;;;3.24;81.47
42335;BME280;27986;42.700;24.178;2023-02-04T05:38:45;93194.16;;;3.13;81.09
42335;BME280;27986;42.700;24.178;2023-02-04T05:41:11;93238.97;;;3.46;81.02
42335;BME280;27986;42.700;24.178;2023-02-04T05:43:37;93137.94;;;2.77;81.04
42335;BME280;27986;42.700;24.178;2023-02-04T05:46:02;93178.59;;;3.00;80.89
42335;BME280;27986;42.700;24.178;2023-02-04T05:48:28;93246.97;;;3.01;82.80
42335;BME280;27986;42.700;24.178;2023-02-04T05:50:54;93266.31;;;3.48;83.39
42335;BME280;27986;42.700;24.178;2023-02-04T05:53:19;93257.09;;;3.36;82.45
42335;BME280;27986;42.700;24.178;2023-02-04T05:55:45;93223.97;;;3.06;84.10
42335;BME280;27986;42.700;24.178;2023-02-04T05:58:10;93210.22;;;2.66;84.89
42335;BME280;27986;42.700;24.178;2023-02-04T06:00:37;93176.59;;;2.17;88.46
42335;BME280;27986;42.700;24.178;2023-02-04T06:03:02;93257.41;;;3.06;88.44
42335;BME280;27986;42.700;24.178;2023-02-04T06:05:28;93270.28;;;2.52;89.90
42335;BME280;27986;42.700;24.178;2023-02-04T06:07:53;93209.47;;;1.73;93.91
42335;BME280;27986;42.700;24.178;2023-02-04T06:10:19;93200.91;;;1.35;97.36
42335;BME280;27986;42.700;24.178;2023-02-04T06:12:46;93249.59;;;1.16;100.00
42335;BME280;27986;42.700;24.178;2023-02-04T06:15:11;93221.38;;;1.03;100.00
42335;BME280;27986;42.700;24.178;2023-02-04T06:17:37;93156.19;;;0.63;100.00
42335;BME280;27986;42.700;24.178;2023-02-04T06:20:04;93192.41;;;0.89;100.00
42335;BME280;27986;42.700;24.178;2023-02-04T06:22:31;93177.84;;;0.94;100.00
42335;BME280;27986;42.700;24.178;2023-02-04T06:24:57;93229.00;;;1.23;100.00
42335;BME280;27986;42.700;24.178;2023-02-04T06:27:23;93174.88;;;0.98;100.00
42335;BME280;27986;42.700;24.178;2023-02-04T06:29:50;93173.09;;;1.15;99.91
42335;BME280;27986;42.700;24.178;2023-02-04T06:32:17;93227.84;;;1.29;100.00
42335;BME280;27986;42.700;24.178;2023-02-04T06:34:43;93173.34;;;0.97;100.00
42335;BME280;27986;42.700;24.178;2023-02-04T06:37:09;93196.09;;;1.01;100.00
42335;BME280;27986;42.700;24.178;2023-02-04T06:39:36;93245.22;;;1.45;100.00
42335;BME280;27986;42.700;24.178;2023-02-04T06:42:01;93135.91;;;0.57;100.00
42335;BME280;27986;42.700;24.178;2023-02-04T06:44:27;93175.09;;;0.79;100.00
42335;BME280;27986;42.700;24.178;2023-02-04T06:46:52;93152.81;;;0.74;100.00
42335;BME280;27986;42.700;24.178;2023-02-04T06:49:17;93184.16;;;0.95;100.00
42335;BME280;27986;42.700;24.178;2023-02-04T06:51:43;93159.72;;;1.34;100.00
42335;BME280;27986;42.700;24.178;2023-02-04T06:54:08;93219.53;;;1.70;99.50
42335;BME280;27986;42.700;24.178;2023-02-04T06:56:40;93188.81;;;1.59;98.70
42335;BME280;27986;42.700;24.178;2023-02-04T06:59:08;93229.75;;;2.19;96.87
42335;BME280;27986;42.700;24.178;2023-02-04T07:01:33;93181.69;;;1.52;97.69
42335;BME280;27986;42.700;24.178;2023-02-04T07:03:59;93167.34;;;1.19;99.42
42335;BME280;27986;42.700;24.178;2023-02-04T07:06:24;93150.13;;;1.15;99.35
42335;BME280;27986;42.700;24.178;2023-02-04T07:08:50;93178.59;;;1.09;100.00
42335;BME280;27986;42.700;24.178;2023-02-04T07:11:15;93178.97;;;1.37;100.00
42335;BME280;27986;42.700;24.178;2023-02-04T07:13:41;93169.25;;;1.27;100.00
42335;BME280;27986;42.700;24.178;2023-02-04T07:16:06;93203.69;;;1.76;99.92
42335;BME280;27986;42.700;24.178;2023-02-04T07:18:32;93177.13;;;1.14;99.87
42335;BME280;27986;42.700;24.178;2023-02-04T07:20:57;93174.22;;;1.23;100.00
42335;BME280;27986;42.700;24.178;2023-02-04T07:23:23;93150.00;;;1.24;99.30
42335;BME280;27986;42.700;24.178;2023-02-04T07:25:50;93174.88;;;1.53;98.55
42335;BME280;27986;42.700;24.178;2023-02-04T07:28:18;93216.03;;;1.34;100.00
42335;BME280;27986;42.700;24.178;2023-02-04T07:30:46;93173.97;;;1.06;100.00
42335;BME280;27986;42.700;24.178;2023-02-04T07:33:11;93157.06;;;1.04;100.00
42335;BME280;27986;42.700;24.178;2023-02-04T07:35:37;93157.41;;;1.12;100.00
42335;BME280;27986;42.700;24.178;2023-02-04T07:38:04;93128.16;;;0.96;99.83
42335;BME280;27986;42.700;24.178;2023-02-04T07:40:29;93178.00;;;1.61;100.00
42335;BME280;27986;42.700;24.178;2023-02-04T07:42:55;93190.63;;;1.82;97.51
42335;BME280;27986;42.700;24.178;2023-02-04T07:45:20;93202.66;;;1.74;97.84
42335;BME280;27986;42.700;24.178;2023-02-04T07:47:46;93189.09;;;1.81;97.31
42335;BME280;27986;42.700;24.178;2023-02-04T07:50:11;93186.66;;;1.28;99.60
42335;BME280;27986;42.700;24.178;2023-02-04T07:52:40;93180.63;;;1.50;99.66
42335;BME280;27986;42.700;24.178;2023-02-04T07:55:06;93201.31;;;1.49;98.80
42335;BME280;27986;42.700;24.178;2023-02-04T07:57:33;93161.44;;;1.31;98.72
42335;BME280;27986;42.700;24.178;2023-02-04T07:59:58;93198.28;;;1.47;98.79
42335;BME280;27986;42.700;24.178;2023-02-04T08:02:25;93162.56;;;1.19;99.27
42335;BME280;27986;42.700;24.178;2023-02-04T08:04:51;93149.09;;;1.32;99.48
42335;BME280;27986;42.700;24.178;2023-02-04T08:07:16;93115.38;;;1.19;98.32
42335;BME280;27986;42.700;24.178;2023-02-04T08:09:42;93104.84;;;1.08;95.57
42335;BME280;27986;42.700;24.178;2023-02-04T08:12:07;93168.63;;;1.79;95.31
42335;BME280;27986;42.700;24.178;2023-02-04T08:14:34;93133.81;;;1.42;93.80
42335;BME280;27986;42.700;24.178;2023-02-04T08:17:01;93121.66;;;1.40;93.08
42335;BME280;27986;42.700;24.178;2023-02-04T08:19:27;93143.53;;;1.73;94.89
42335;BME280;27986;42.700;24.178;2023-02-04T08:21:52;93118.41;;;1.41;95.50
42335;BME280;27986;42.700;24.178;2023-02-04T08:24:18;93159.22;;;1.76;94.83
42335;BME280;27986;42.700;24.178;2023-02-04T08:26:44;93177.00;;;1.84;93.37
42335;BME280;27986;42.700;24.178;2023-02-04T08:29:15;93158.03;;;1.83;92.72
42335;BME280;27986;42.700;24.178;2023-02-04T08:31:40;93170.47;;;1.87;93.38
42335;BME280;27986;42.700;24.178;2023-02-04T08:34:06;93159.09;;;1.85;93.18
42335;BME280;27986;42.700;24.178;2023-02-04T08:36:32;93179.31;;;1.86;92.52
42335;BME280;27986;42.700;24.178;2023-02-04T08:39:01;93161.88;;;1.85;92.26
42335;BME280;27986;42.700;24.178;2023-02-04T08:41:29;93048.31;;;1.26;90.45
42335;BME280;27986;42.700;24.178;2023-02-04T08:43:57;93057.19;;;1.30;89.42
42335;BME280;27986;42.700;24.178;2023-02-04T08:46:23;93139.19;;;1.92;89.46
42335;BME280;27986;42.700;24.178;2023-02-04T08:48:48;93179.28;;;2.32;89.19
42335;BME280;27986;42.700;24.178;2023-02-04T08:51:14;93188.72;;;2.40;88.50
42335;BME280;27986;42.700;24.178;2023-02-04T08:53:41;93171.00;;;2.38;89.07
42335;BME280;27986;42.700;24.178;2023-02-04T08:56:19;93167.41;;;2.06;89.63
42335;BME280;27986;42.700;24.178;2023-02-04T08:58:45;93181.69;;;2.19;89.41
42335;BME280;27986;42.700;24.178;2023-02-04T09:01:14;93113.63;;;1.88;88.92
42335;BME280;27986;42.700;24.178;2023-02-04T09:03:47;93073.69;;;1.39;90.83
42335;BME280;27986;42.700;24.178;2023-02-04T09:06:13;93082.78;;;1.40;91.86
42335;BME280;27986;42.700;24.178;2023-02-04T09:08:38;93072.44;;;1.40;91.86
42335;BME280;27986;42.700;24.178;2023-02-04T09:11:04;93104.09;;;1.69;90.91
42335;BME280;27986;42.700;24.178;2023-02-04T09:13:30;93146.50;;;2.42;80.49
42335;BME280;27986;42.700;24.178;2023-02-04T09:15:56;93127.41;;;2.55;84.00
42335;BME280;27986;42.700;24.178;2023-02-04T09:18:22;93147.84;;;2.83;67.86
42335;BME280;27986;42.700;24.178;2023-02-04T09:20:50;93148.63;;;3.27;68.18
42335;BME280;27986;42.700;24.178;2023-02-04T09:23:16;93098.66;;;3.06;67.78
42335;BME280;27986;42.700;24.178;2023-02-04T09:25:52;93176.75;;;3.72;69.03
42335;BME280;27986;42.700;24.178;2023-02-04T09:28:17;93185.81;;;3.61;70.87
42335;BME280;27986;42.700;24.178;2023-02-04T09:30:45;93157.47;;;3.62;68.67
42335;BME280;27986;42.700;24.178;2023-02-04T09:33:17;93149.53;;;3.50;73.84
42335;BME280;27986;42.700;24.178;2023-02-04T09:35:42;93151.63;;;3.66;76.94
42335;BME280;27986;42.700;24.178;2023-02-04T09:38:08;93131.91;;;3.21;79.12
42335;BME280;27986;42.700;24.178;2023-02-04T09:40:37;93164.44;;;3.41;74.86
42335;BME280;27986;42.700;24.178;2023-02-04T09:43:05;93143.09;;;3.32;80.66
42335;BME280;27986;42.700;24.178;2023-02-04T09:45:34;93137.25;;;3.25;81.18
42335;BME280;27986;42.700;24.178;2023-02-04T09:51:06;93163.34;;;3.27;81.78
42335;BME280;27986;42.700;24.178;2023-02-04T09:53:33;93124.16;;;3.42;81.44
42335;BME280;27986;42.700;24.178;2023-02-04T09:56:00;93137.50;;;3.81;79.17
42335;BME280;27986;42.700;24.178;2023-02-04T09:58:28;93126.88;;;3.85;79.47
42335;BME280;27986;42.700;24.178;2023-02-04T10:00:59;93152.03;;;4.02;79.66
42335;BME280;27986;42.700;24.178;2023-02-04T10:03:28;93112.41;;;3.86;77.06
42335;BME280;27986;42.700;24.178;2023-02-04T10:05:53;93126.16;;;4.01;77.23
42335;BME280;27986;42.700;24.178;2023-02-04T10:08:27;93100.41;;;3.58;80.84
42335;BME280;27986;42.700;24.178;2023-02-04T10:10:57;93128.53;;;3.54;83.34
42335;BME280;27986;42.700;24.178;2023-02-04T10:13:30;93009.09;;;2.71;84.53
42335;BME280;27986;42.700;24.178;2023-02-04T10:15:57;93085.38;;;2.90;85.91
42335;BME280;27986;42.700;24.178;2023-02-04T10:18:26;93127.94;;;3.39;86.82
42335;BME280;27986;42.700;24.178;2023-02-04T10:21:16;93132.16;;;3.72;85.62
42335;BME280;27986;42.700;24.178;2023-02-04T10:23:43;93101.56;;;3.34;86.52
42335;BME280;27986;42.700;24.178;2023-02-04T10:26:14;93106.16;;;3.37;87.62
42335;BME280;27986;42.700;24.178;2023-02-04T10:28:40;93017.31;;;2.48;90.10
42335;BME280;27986;42.700;24.178;2023-02-04T10:31:27;93091.38;;;2.77;92.67
42335;BME280;27986;42.700;24.178;2023-02-04T10:34:18;93135.75;;;2.92;94.81
42335;BME280;27986;42.700;24.178;2023-02-04T10:39:23;93127.91;;;2.91;91.19
42335;BME280;27986;42.700;24.178;2023-02-04T10:41:53;93130.66;;;3.22;89.49
42335;BME280;27986;42.700;24.178;2023-02-04T10:44:31;93132.22;;;3.29;85.72
42335;BME280;27986;42.700;24.178;2023-02-04T10:47:00;93128.06;;;3.19;88.33
42335;BME280;27986;42.700;24.178;2023-02-04T10:49:26;93095.25;;;2.91;95.48
42335;BME280;27986;42.700;24.178;2023-02-04T10:51:52;93120.28;;;3.23;95.75
42335;BME280;27986;42.700;24.178;2023-02-04T10:54:27;93077.53;;;2.89;95.55
42335;BME280;27986;42.700;24.178;2023-02-04T10:59:42;93094.38;;;2.74;97.20
42335;BME280;27986;42.700;24.178;2023-02-04T11:05:18;93114.69;;;2.80;100.00
42335;BME280;27986;42.700;24.178;2023-02-04T11:07:45;93063.34;;;2.49;100.00
42335;BME280;27986;42.700;24.178;2023-02-04T11:10:16;93136.31;;;2.65;100.00
42335;BME280;27986;42.700;24.178;2023-02-04T11:16:06;93119.00;;;2.81;100.00
42335;BME280;27986;42.700;24.178;2023-02-04T11:26:52;93060.25;;;1.84;100.00
42335;BME280;27986;42.700;24.178;2023-02-04T11:29:30;93108.66;;;2.24;100.00
42335;BME280;27986;42.700;24.178;2023-02-04T11:34:44;93057.47;;;1.84;100.00
42335;BME280;27986;42.700;24.178;2023-02-04T11:37:27;93111.16;;;2.48;100.00
42335;BME280;27986;42.700;24.178;2023-02-04T11:39:57;93061.13;;;2.22;100.00
42335;BME280;27986;42.700;24.178;2023-02-04T11:42:41;93111.53;;;2.67;100.00
42335;BME280;27986;42.700;24.178;2023-02-04T11:45:19;93108.28;;;2.37;100.00
42335;BME280;27986;42.700;24.178;2023-02-04T11:47:45;93093.31;;;2.34;100.00
